createdAt,value
2019-01-24T00:00:16.355Z,93.15
2019-01-24T00:01:22.774Z,93.27
2019-01-24T00:02:29.208Z,93.29
2019-01-24T00:03:35.511Z,93.22
2019-01-24T00:04:41.469Z,93.35
2019-01-24T00:05:47.814Z,93.41
2019-01-24T00:06:54.127Z,93.40
2019-01-24T00:08:00.143Z,93.34
2019-01-24T00:09:05.832Z,93.43
2019-01-24T00:10:11.544Z,93.50
2019-01-24T00:11:17.721Z,93.39
2019-01-24T00:12:24.094Z,93.31
2019-01-24T00:13:30.471Z,93.32
2019-01-24T00:14:36.885Z,93.28
2019-01-24T00:15:42.874Z,93.22
2019-01-24T00:16:49.233Z,93.12
2019-01-24T00:17:55.639Z,93.40
2019-01-24T00:19:02.005Z,93.65
2019-01-24T00:20:07.660Z,94.34
2019-01-24T00:21:13.975Z,94.77
2019-01-24T00:22:20.336Z,95.23
2019-01-24T00:23:26.689Z,95.21
2019-01-24T00:24:33.084Z,95.17
2019-01-24T00:25:39.426Z,95.28
2019-01-24T00:26:45.761Z,95.53
2019-01-24T00:27:52.115Z,95.57
2019-01-24T00:28:58.510Z,95.51
2019-01-24T00:30:04.183Z,95.75
2019-01-24T00:31:10.538Z,95.85
2019-01-24T00:32:16.961Z,95.57
2019-01-24T00:33:23.300Z,95.49
2019-01-24T00:34:29.624Z,95.86
2019-01-24T00:35:36.043Z,96.08
2019-01-24T00:36:42.340Z,95.98
2019-01-24T00:37:48.693Z,95.87
2019-01-24T00:38:55.103Z,95.78
2019-01-24T00:40:01.464Z,95.82
2019-01-24T00:41:07.836Z,95.76
2019-01-24T00:42:14.178Z,95.75
2019-01-24T00:43:20.586Z,95.84
2019-01-24T00:44:27.011Z,95.80
2019-01-24T00:45:33.329Z,95.81
2019-01-24T00:46:39.728Z,96.01
2019-01-24T00:47:46.084Z,96.25
2019-01-24T00:48:52.480Z,96.26
2019-01-24T00:49:58.783Z,96.16
2019-01-24T00:51:05.142Z,96.07
2019-01-24T00:52:11.441Z,95.73
2019-01-24T00:53:17.779Z,95.59
2019-01-24T00:54:24.111Z,95.62
2019-01-24T00:55:30.428Z,95.83
2019-01-24T00:56:36.755Z,95.98
2019-01-24T00:57:42.379Z,96.21
2019-01-24T00:58:48.730Z,96.17
2019-01-24T00:59:55.117Z,96.14
2019-01-24T01:01:00.757Z,96.07
2019-01-24T01:02:07.133Z,96.28
2019-01-24T01:03:13.495Z,96.25
2019-01-24T01:04:19.503Z,96.25
2019-01-24T01:05:28.733Z,96.20
2019-01-24T01:06:35.045Z,96.43
2019-01-24T01:07:40.688Z,96.36
2019-01-24T01:08:47.573Z,96.37
2019-01-24T01:09:54.606Z,96.34
2019-01-24T01:11:00.654Z,96.32
2019-01-24T01:12:06.297Z,96.55
2019-01-24T01:13:12.693Z,96.58
2019-01-24T01:14:19.025Z,96.63
2019-01-24T01:15:25.135Z,96.53
2019-01-24T01:16:31.670Z,97.25
2019-01-24T01:17:38.028Z,97.52
2019-01-24T01:18:44.418Z,97.63
2019-01-24T01:19:50.740Z,97.72
2019-01-24T01:20:56.394Z,97.70
2019-01-24T01:22:02.378Z,97.77
2019-01-24T01:23:08.293Z,97.94
2019-01-24T01:24:14.721Z,97.82
2019-01-24T01:25:20.419Z,97.85
2019-01-24T01:26:26.769Z,97.82
2019-01-24T01:27:32.447Z,97.74
2019-01-24T01:28:38.478Z,97.66
2019-01-24T01:29:44.495Z,97.45
2019-01-24T01:30:50.800Z,97.41
2019-01-24T01:31:56.845Z,97.38
2019-01-24T01:33:03.198Z,97.39
2019-01-24T01:34:09.217Z,97.93
2019-01-24T01:35:14.834Z,97.85
2019-01-24T01:36:21.169Z,97.88
2019-01-24T01:37:27.540Z,97.79
2019-01-24T01:38:33.923Z,98.03
2019-01-24T01:39:40.237Z,98.07
2019-01-24T01:40:46.539Z,97.98
2019-01-24T01:41:52.887Z,97.85
2019-01-24T01:42:59.196Z,97.84
2019-01-24T01:44:04.862Z,98.19
2019-01-24T01:45:11.573Z,98.12
2019-01-24T01:46:17.907Z,97.94
2019-01-24T01:47:24.610Z,97.80
2019-01-24T01:48:30.976Z,97.73
2019-01-24T01:49:37.011Z,97.99
2019-01-24T01:50:43.533Z,98.09
2019-01-24T01:51:49.492Z,98.03
2019-01-24T01:52:55.480Z,98.02
2019-01-24T01:54:01.805Z,98.11
2019-01-24T01:55:07.486Z,98.15
2019-01-24T01:56:13.852Z,98.08
2019-01-24T01:57:20.544Z,97.87
2019-01-24T01:58:26.885Z,97.78
2019-01-24T01:59:33.266Z,97.89
2019-01-24T02:00:38.947Z,97.88
2019-01-24T02:01:44.248Z,98.05
2019-01-24T02:02:49.871Z,98.12
2019-01-24T02:03:55.907Z,98.40
2019-01-24T02:05:02.269Z,98.61
2019-01-24T02:06:08.662Z,98.96
2019-01-24T02:07:14.984Z,99.01
2019-01-24T02:08:21.322Z,99.20
2019-01-24T02:09:27.713Z,99.46
2019-01-24T02:10:34.114Z,99.39
2019-01-24T02:11:40.498Z,99.31
2019-01-24T02:12:47.218Z,99.80
2019-01-24T02:13:53.254Z,99.78
2019-01-24T02:14:59.220Z,99.68
2019-01-24T02:16:05.230Z,99.69
2019-01-24T02:17:11.619Z,99.70
2019-01-24T02:18:17.290Z,99.69
2019-01-24T02:19:23.694Z,99.69
2019-01-24T02:20:30.022Z,99.89
2019-01-24T02:21:36.383Z,100.00
2019-01-24T02:22:42.430Z,100.00
2019-01-24T02:23:49.774Z,100.00
2019-01-24T02:24:56.165Z,100.00
2019-01-24T02:26:02.499Z,100.00
2019-01-24T02:27:08.827Z,100.00
2019-01-24T02:28:15.242Z,100.00
2019-01-24T02:29:21.667Z,100.00
2019-01-24T02:30:27.389Z,100.00
2019-01-24T02:31:33.372Z,100.00
2019-01-24T02:32:39.709Z,100.00
2019-01-24T02:33:46.083Z,100.00
2019-01-24T02:34:52.458Z,100.00
2019-01-24T02:35:58.874Z,100.00
2019-01-24T02:37:04.532Z,100.00
2019-01-24T02:38:10.885Z,100.00
2019-01-24T02:39:17.269Z,100.00
2019-01-24T02:40:23.064Z,100.00
2019-01-24T02:41:29.440Z,100.00
2019-01-24T02:42:35.472Z,100.00
2019-01-24T02:43:41.848Z,100.00
2019-01-24T02:44:48.217Z,100.00
2019-01-24T02:45:54.674Z,100.00
2019-01-24T02:47:01.038Z,100.00
2019-01-24T02:48:07.406Z,100.00
2019-01-24T02:49:13.824Z,100.00
2019-01-24T02:50:19.511Z,100.00
2019-01-24T02:51:25.830Z,100.00
2019-01-24T02:52:32.138Z,100.00
2019-01-24T02:53:38.448Z,100.00
2019-01-24T02:54:44.852Z,100.00
2019-01-24T02:55:51.483Z,100.00
2019-01-24T02:56:57.872Z,100.00
2019-01-24T02:58:03.892Z,100.00
2019-01-24T02:59:10.351Z,100.00
2019-01-24T03:00:16.017Z,100.00
2019-01-24T03:01:22.445Z,100.00
2019-01-24T03:02:28.650Z,100.00
2019-01-24T03:03:35.069Z,100.00
2019-01-24T03:04:41.429Z,100.00
2019-01-24T03:05:47.816Z,100.00
2019-01-24T03:06:54.262Z,100.00
2019-01-24T03:08:00.659Z,100.00
2019-01-24T03:09:06.333Z,100.00
2019-01-24T03:10:12.065Z,100.00
2019-01-24T03:11:18.513Z,100.00
2019-01-24T03:12:24.871Z,100.00
2019-01-24T03:13:31.215Z,100.00
2019-01-24T03:14:37.594Z,100.00
2019-01-24T03:15:44.029Z,100.00
2019-01-24T03:16:50.095Z,100.00
2019-01-24T03:17:56.177Z,100.00
2019-01-24T03:19:02.607Z,100.00
2019-01-24T03:20:08.337Z,100.00
2019-01-24T03:21:14.715Z,100.00
2019-01-24T03:22:20.741Z,100.00
2019-01-24T03:23:27.168Z,100.00
2019-01-24T03:24:33.602Z,100.00
2019-01-24T03:25:40.160Z,100.00
2019-01-24T03:26:46.271Z,100.00
2019-01-24T03:27:52.692Z,100.00
2019-01-24T03:28:59.118Z,100.00
2019-01-24T03:30:11.149Z,100.00
2019-01-24T03:31:17.532Z,100.00
2019-01-24T03:32:23.979Z,100.00
2019-01-24T03:33:30.373Z,100.00
2019-01-24T03:34:36.791Z,100.00
2019-01-24T03:35:42.817Z,100.00
2019-01-24T03:36:49.258Z,100.00
2019-01-24T03:37:55.228Z,100.00
2019-01-24T03:39:01.618Z,100.00
2019-01-24T03:40:06.961Z,100.00
2019-01-24T03:41:13.069Z,100.00
2019-01-24T03:42:19.094Z,100.00
2019-01-24T03:43:25.178Z,100.00
2019-01-24T03:44:31.598Z,100.00
2019-01-24T03:45:38.102Z,100.00
2019-01-24T03:46:44.548Z,100.00
2019-01-24T03:47:51.123Z,100.00
2019-01-24T03:48:57.624Z,100.00
2019-01-24T03:50:03.428Z,100.00
2019-01-24T03:51:09.811Z,100.00
2019-01-24T03:52:16.176Z,100.00
2019-01-24T03:53:22.520Z,100.00
2019-01-24T03:54:28.876Z,100.00
2019-01-24T03:55:35.256Z,100.00
2019-01-24T03:56:41.609Z,100.00
2019-01-24T03:57:47.303Z,100.00
2019-01-24T03:58:53.716Z,100.00
2019-01-24T04:00:00.367Z,100.00
2019-01-24T04:01:06.592Z,100.00
2019-01-24T04:02:12.702Z,100.00
2019-01-24T04:03:18.736Z,100.00
2019-01-24T04:04:24.443Z,100.00
2019-01-24T04:05:30.879Z,100.00
2019-01-24T04:06:37.412Z,100.00
2019-01-24T04:07:43.791Z,100.00
2019-01-24T04:08:50.122Z,100.00
2019-01-24T04:09:56.607Z,100.00
2019-01-24T04:11:03.053Z,100.00
2019-01-24T04:12:09.428Z,100.00
2019-01-24T04:13:15.822Z,100.00
2019-01-24T04:14:21.865Z,100.00
2019-01-24T04:15:28.317Z,100.00
2019-01-24T04:16:34.791Z,100.00
2019-01-24T04:17:40.816Z,100.00
2019-01-24T04:18:47.246Z,100.00
2019-01-24T04:19:53.644Z,100.00
2019-01-24T04:20:59.982Z,100.00
2019-01-24T04:22:06.358Z,100.00
2019-01-24T04:23:12.749Z,100.00
2019-01-24T04:24:19.191Z,100.00
2019-01-24T04:25:25.314Z,100.00
2019-01-24T04:26:31.810Z,100.00
2019-01-24T04:27:38.263Z,100.00
2019-01-24T04:28:44.717Z,100.00
2019-01-24T04:29:51.010Z,100.00
2019-01-24T04:30:57.427Z,100.00
2019-01-24T04:32:03.804Z,100.00
2019-01-24T04:33:10.222Z,100.00
2019-01-24T04:34:16.643Z,100.00
2019-01-24T04:35:23.026Z,100.00
2019-01-24T04:36:29.512Z,100.00
2019-01-24T04:37:35.981Z,100.00
2019-01-24T04:38:42.416Z,100.00
2019-01-24T04:39:48.867Z,100.00
2019-01-24T04:40:55.339Z,100.00
2019-01-24T04:42:01.411Z,100.00
2019-01-24T04:43:07.738Z,100.00
2019-01-24T04:44:14.139Z,100.00
2019-01-24T04:45:19.828Z,100.00
2019-01-24T04:46:26.210Z,100.00
2019-01-24T04:47:32.640Z,100.00
2019-01-24T04:48:38.698Z,100.00
2019-01-24T04:49:45.125Z,100.00
2019-01-24T04:50:51.613Z,100.00
2019-01-24T04:51:57.982Z,100.00
2019-01-24T04:53:04.500Z,100.00
2019-01-24T04:54:11.087Z,100.00
2019-01-24T04:55:16.786Z,100.00
2019-01-24T04:56:23.229Z,100.00
2019-01-24T04:57:29.618Z,100.00
2019-01-24T04:58:36.051Z,100.00
2019-01-24T04:59:42.221Z,100.00
2019-01-24T05:00:48.661Z,100.00
2019-01-24T05:01:55.308Z,100.00
2019-01-24T05:03:01.800Z,100.00
2019-01-24T05:04:08.648Z,100.00
2019-01-24T05:05:15.462Z,100.00
2019-01-24T05:06:21.857Z,100.00
2019-01-24T05:07:27.889Z,100.00
2019-01-24T05:08:34.244Z,100.00
2019-01-24T05:09:40.577Z,100.00
2019-01-24T05:10:46.648Z,100.00
2019-01-24T05:11:52.981Z,100.00
2019-01-24T05:12:59.336Z,100.00
2019-01-24T05:14:05.045Z,100.00
2019-01-24T05:15:10.713Z,100.00
2019-01-24T05:16:17.114Z,100.00
2019-01-24T05:17:23.559Z,100.00
2019-01-24T05:18:29.608Z,100.00
2019-01-24T05:19:35.997Z,100.00
2019-01-24T05:20:42.381Z,100.00
2019-01-24T05:21:48.746Z,100.00
2019-01-24T05:22:55.111Z,100.00
2019-01-24T05:24:01.539Z,100.00
2019-01-24T05:25:07.990Z,100.00
2019-01-24T05:26:14.365Z,100.00
2019-01-24T05:27:20.798Z,100.00
2019-01-24T05:28:27.198Z,100.00
2019-01-24T05:29:33.600Z,100.00
2019-01-24T05:30:40.062Z,100.00
2019-01-24T05:31:46.606Z,100.00
2019-01-24T05:32:53.206Z,100.00
2019-01-24T05:33:59.589Z,100.00
2019-01-24T05:35:05.305Z,100.00
2019-01-24T05:36:11.663Z,100.00
2019-01-24T05:37:18.092Z,100.00
2019-01-24T05:38:24.546Z,100.00
2019-01-24T05:39:30.988Z,100.00
2019-01-24T05:40:37.394Z,100.00
2019-01-24T05:41:43.862Z,100.00
2019-01-24T05:42:50.222Z,100.00
2019-01-24T05:43:56.727Z,100.00
2019-01-24T05:45:02.819Z,100.00
2019-01-24T05:46:09.228Z,100.00
2019-01-24T05:47:15.700Z,100.00
2019-01-24T05:48:22.168Z,100.00
2019-01-24T05:49:28.764Z,100.00
2019-01-24T05:50:35.184Z,100.00
2019-01-24T05:51:41.576Z,100.00
2019-01-24T05:52:47.916Z,100.00
2019-01-24T05:53:54.359Z,100.00
2019-01-24T05:55:00.780Z,100.00
2019-01-24T05:56:07.278Z,100.00
2019-01-24T05:57:13.587Z,100.00
2019-01-24T05:58:19.939Z,100.00
2019-01-24T05:59:26.372Z,100.00
2019-01-24T06:00:32.598Z,100.00
2019-01-24T06:01:38.704Z,100.00
2019-01-24T06:02:44.734Z,100.00
2019-01-24T06:03:51.146Z,100.00
2019-01-24T06:04:57.194Z,100.00
2019-01-24T06:06:03.259Z,100.00
2019-01-24T06:07:09.600Z,100.00
2019-01-24T06:08:16.355Z,100.00
2019-01-24T06:09:22.727Z,100.00
2019-01-24T06:10:29.101Z,100.00
2019-01-24T06:11:35.443Z,100.00
2019-01-24T06:12:41.104Z,100.00
2019-01-24T06:13:47.455Z,100.00
2019-01-24T06:14:53.762Z,100.00
2019-01-24T06:16:00.127Z,100.00
2019-01-24T06:17:06.455Z,100.00
2019-01-24T06:18:12.817Z,100.00
2019-01-24T06:19:19.208Z,100.00
2019-01-24T06:20:25.585Z,100.00
2019-01-24T06:21:31.656Z,100.00
2019-01-24T06:22:38.017Z,100.00
2019-01-24T06:23:44.333Z,100.00
2019-01-24T06:24:51.224Z,100.00
2019-01-24T06:25:57.590Z,100.00
2019-01-24T06:27:03.581Z,100.00
2019-01-24T06:28:10.000Z,100.00
2019-01-24T06:29:16.996Z,100.00
2019-01-24T06:30:22.652Z,100.00
2019-01-24T06:31:29.018Z,100.00
2019-01-24T06:32:35.410Z,100.00
2019-01-24T06:33:41.883Z,100.00
2019-01-24T06:34:48.387Z,100.00
2019-01-24T06:35:54.776Z,100.00
2019-01-24T06:37:01.135Z,100.00
2019-01-24T06:38:07.498Z,100.00
2019-01-24T06:39:13.859Z,100.00
2019-01-24T06:40:19.834Z,100.00
2019-01-24T06:41:26.234Z,99.86
2019-01-24T06:42:32.647Z,99.48
2019-01-24T06:43:39.025Z,99.25
2019-01-24T06:44:45.361Z,98.59
2019-01-24T06:45:52.643Z,98.99
2019-01-24T06:46:59.010Z,98.78
2019-01-24T06:48:04.698Z,98.71
2019-01-24T06:49:11.068Z,98.82
2019-01-24T06:50:16.694Z,98.74
2019-01-24T06:51:23.071Z,99.02
2019-01-24T06:52:29.399Z,98.78
2019-01-24T06:53:35.759Z,98.73
2019-01-24T06:54:42.816Z,98.44
2019-01-24T06:55:49.160Z,98.22
2019-01-24T06:56:55.166Z,98.24
2019-01-24T06:58:01.557Z,98.12
2019-01-24T06:59:07.950Z,98.25
2019-01-24T07:00:13.562Z,98.34
2019-01-24T07:01:19.943Z,97.93
2019-01-24T07:02:26.302Z,97.91
2019-01-24T07:03:32.614Z,98.24
2019-01-24T07:04:38.983Z,98.08
2019-01-24T07:05:45.364Z,98.10
2019-01-24T07:06:51.794Z,97.84
2019-01-24T07:07:58.103Z,97.69
2019-01-24T07:09:03.562Z,98.04
2019-01-24T07:10:09.220Z,97.97
2019-01-24T07:11:15.580Z,97.96
2019-01-24T07:12:21.936Z,97.60
2019-01-24T07:13:29.804Z,97.59
2019-01-24T07:14:37.463Z,97.67
2019-01-24T07:15:43.885Z,97.57
2019-01-24T07:16:50.352Z,97.72
2019-01-24T07:17:56.366Z,97.81
2019-01-24T07:19:02.743Z,97.37
2019-01-24T07:20:08.501Z,97.36
2019-01-24T07:21:14.898Z,97.25
2019-01-24T07:22:21.289Z,97.30
2019-01-24T07:23:27.613Z,97.50
2019-01-24T07:24:33.958Z,97.04
2019-01-24T07:25:40.384Z,96.97
2019-01-24T07:26:46.775Z,97.04
2019-01-24T07:27:52.494Z,97.13
2019-01-24T07:28:58.811Z,97.12
2019-01-24T07:30:08.325Z,97.38
2019-01-24T07:31:14.705Z,97.46
2019-01-24T07:32:21.178Z,96.91
2019-01-24T07:33:27.764Z,96.65
2019-01-24T07:34:34.937Z,96.62
2019-01-24T07:35:41.463Z,96.66
2019-01-24T07:36:47.570Z,96.46
2019-01-24T07:37:53.907Z,96.47
2019-01-24T07:39:00.325Z,96.21
2019-01-24T07:40:05.993Z,96.41
2019-01-24T07:41:12.361Z,96.36
2019-01-24T07:42:18.715Z,96.14
2019-01-24T07:43:25.073Z,96.10
2019-01-24T07:44:31.504Z,96.20
2019-01-24T07:45:37.184Z,96.41
2019-01-24T07:46:43.567Z,96.23
2019-01-24T07:47:49.924Z,96.33
2019-01-24T07:48:56.314Z,96.32
2019-01-24T07:50:02.306Z,96.33
2019-01-24T07:51:08.689Z,96.72
2019-01-24T07:52:15.073Z,96.79
2019-01-24T07:53:21.457Z,96.55
2019-01-24T07:54:27.787Z,96.35
2019-01-24T07:55:34.912Z,96.51
2019-01-24T07:56:41.954Z,96.36
2019-01-24T07:57:48.053Z,96.58
2019-01-24T07:58:54.381Z,96.70
2019-01-24T08:00:00.750Z,96.32
2019-01-24T08:01:07.151Z,96.09
2019-01-24T08:02:13.528Z,96.11
2019-01-24T08:03:19.919Z,96.22
2019-01-24T08:04:26.279Z,96.35
2019-01-24T08:05:32.641Z,96.32
2019-01-24T08:06:39.011Z,96.41
2019-01-24T08:07:44.675Z,96.20
2019-01-24T08:08:51.088Z,96.09
2019-01-24T08:09:57.478Z,96.25
2019-01-24T08:11:03.872Z,96.48
2019-01-24T08:12:10.227Z,96.51
2019-01-24T08:13:16.628Z,96.58
2019-01-24T08:14:23.427Z,96.46
2019-01-24T08:15:29.455Z,96.21
2019-01-24T08:16:35.478Z,96.57
2019-01-24T08:17:41.761Z,96.68
2019-01-24T08:18:50.030Z,96.54
2019-01-24T08:19:57.319Z,96.79
2019-01-24T08:21:03.318Z,96.70
2019-01-24T08:22:08.981Z,96.65
2019-01-24T08:23:15.350Z,96.85
2019-01-24T08:24:21.737Z,96.98
2019-01-24T08:25:27.439Z,96.96
2019-01-24T08:26:33.739Z,97.14
2019-01-24T08:27:39.729Z,97.07
2019-01-24T08:28:45.717Z,97.26
2019-01-24T08:29:52.178Z,96.98
2019-01-24T08:30:58.489Z,97.08
2019-01-24T08:32:04.098Z,97.13
2019-01-24T08:33:10.485Z,97.17
2019-01-24T08:34:16.821Z,97.04
2019-01-24T08:35:22.445Z,97.35
2019-01-24T08:36:28.775Z,97.42
2019-01-24T08:37:35.172Z,96.93
2019-01-24T08:38:41.570Z,96.98
2019-01-24T08:39:47.917Z,96.78
2019-01-24T08:40:54.258Z,96.96
2019-01-24T08:42:00.604Z,96.97
2019-01-24T08:43:07.019Z,96.89
2019-01-24T08:44:13.355Z,97.02
2019-01-24T08:45:19.021Z,96.99
2019-01-24T08:46:25.355Z,97.16
2019-01-24T08:47:31.710Z,97.10
2019-01-24T08:48:38.086Z,97.49
2019-01-24T08:49:44.508Z,97.53
2019-01-24T08:50:50.868Z,97.15
2019-01-24T08:51:57.198Z,97.06
2019-01-24T08:53:03.592Z,97.24
2019-01-24T08:54:09.939Z,97.28
2019-01-24T08:55:17.021Z,97.43
2019-01-24T08:56:23.376Z,97.30
2019-01-24T08:57:29.675Z,97.27
2019-01-24T08:58:36.070Z,97.21
2019-01-24T08:59:42.433Z,97.43
2019-01-24T09:00:48.428Z,97.44
2019-01-24T09:01:55.578Z,97.32
2019-01-24T09:03:01.983Z,97.40
2019-01-24T09:04:08.363Z,97.36
2019-01-24T09:05:14.011Z,97.37
2019-01-24T09:06:22.618Z,97.54
2019-01-24T09:07:26.433Z,97.73
2019-01-24T09:08:32.185Z,97.21
2019-01-24T09:09:38.554Z,97.09
2019-01-24T09:10:44.594Z,97.00
2019-01-24T09:11:50.882Z,97.51
2019-01-24T09:12:56.949Z,97.48
2019-01-24T09:14:02.709Z,97.70
2019-01-24T09:15:08.366Z,97.65
2019-01-24T09:16:14.742Z,97.50
2019-01-24T09:17:21.163Z,97.53
2019-01-24T09:18:27.240Z,97.83
2019-01-24T09:19:33.635Z,97.45
2019-01-24T09:20:40.001Z,97.32
2019-01-24T09:21:46.457Z,96.87
2019-01-24T09:22:55.269Z,96.67
2019-01-24T09:23:58.187Z,96.86
2019-01-24T09:25:03.918Z,96.96
2019-01-24T09:26:09.990Z,96.68
2019-01-24T09:27:16.352Z,96.96
2019-01-24T09:28:22.717Z,96.93
2019-01-24T09:29:29.045Z,96.63
2019-01-24T09:30:35.414Z,96.86
2019-01-24T09:31:41.746Z,97.41
2019-01-24T09:32:48.147Z,96.90
2019-01-24T09:33:54.574Z,97.14
2019-01-24T09:35:00.999Z,97.21
2019-01-24T09:36:07.009Z,97.22
2019-01-24T09:37:13.347Z,97.12
2019-01-24T09:38:19.674Z,96.73
2019-01-24T09:39:26.148Z,97.16
2019-01-24T09:40:32.504Z,97.09
2019-01-24T09:41:38.579Z,97.43
2019-01-24T09:42:44.285Z,97.29
2019-01-24T09:43:50.658Z,97.42
2019-01-24T09:44:57.059Z,97.66
2019-01-24T09:46:03.363Z,97.01
2019-01-24T09:47:09.767Z,97.13
2019-01-24T09:48:15.745Z,96.92
2019-01-24T09:49:22.093Z,96.86
2019-01-24T09:50:27.816Z,97.43
2019-01-24T09:51:34.193Z,97.34
2019-01-24T09:52:40.549Z,97.68
2019-01-24T09:53:46.904Z,97.46
2019-01-24T09:54:53.250Z,96.54
2019-01-24T09:55:59.602Z,96.63
2019-01-24T09:57:05.253Z,96.65
2019-01-24T09:58:11.720Z,96.08
2019-01-24T09:59:18.063Z,96.31
2019-01-24T10:00:24.428Z,96.16
2019-01-24T10:01:30.516Z,95.74
2019-01-24T10:02:36.891Z,96.36
2019-01-24T10:03:43.298Z,96.03
2019-01-24T10:04:49.796Z,95.88
2019-01-24T10:05:56.313Z,95.80
2019-01-24T10:07:02.709Z,96.00
2019-01-24T10:08:08.409Z,95.95
2019-01-24T10:09:14.871Z,96.17
2019-01-24T10:10:20.537Z,96.09
2019-01-24T10:11:26.880Z,96.22
2019-01-24T10:12:33.188Z,96.01
2019-01-24T10:13:39.571Z,95.65
2019-01-24T10:14:45.969Z,95.26
2019-01-24T10:15:52.327Z,95.91
2019-01-24T10:16:58.671Z,95.73
2019-01-24T10:18:04.640Z,95.70
2019-01-24T10:19:10.655Z,95.43
2019-01-24T10:20:17.296Z,95.05
2019-01-24T10:21:23.642Z,95.24
2019-01-24T10:22:29.970Z,95.73
2019-01-24T10:23:36.386Z,96.24
2019-01-24T10:24:42.732Z,95.96
2019-01-24T10:25:49.810Z,96.21
2019-01-24T10:26:57.084Z,96.13
2019-01-24T10:28:03.088Z,96.07
2019-01-24T10:29:09.441Z,96.07
2019-01-24T10:30:15.765Z,95.86
2019-01-24T10:31:22.390Z,95.17
2019-01-24T10:32:28.794Z,95.37
2019-01-24T10:33:35.208Z,95.54
2019-01-24T10:34:41.223Z,95.23
2019-01-24T10:35:47.348Z,95.19
2019-01-24T10:36:53.657Z,94.75
2019-01-24T10:37:59.995Z,94.83
2019-01-24T10:39:05.713Z,95.01
2019-01-24T10:40:14.937Z,95.00
2019-01-24T10:41:21.356Z,95.33
2019-01-24T10:42:27.382Z,94.90
2019-01-24T10:43:33.390Z,95.07
2019-01-24T10:44:39.776Z,95.00
2019-01-24T10:45:46.186Z,95.09
2019-01-24T10:46:53.239Z,94.80
2019-01-24T10:47:59.826Z,94.56
2019-01-24T10:49:05.948Z,94.28
2019-01-24T10:50:11.655Z,94.56
2019-01-24T10:51:17.982Z,94.19
2019-01-24T10:52:24.379Z,94.40
2019-01-24T10:53:30.696Z,94.33
2019-01-24T10:54:37.075Z,94.37
2019-01-24T10:55:43.122Z,94.09
2019-01-24T10:56:49.471Z,93.73
2019-01-24T10:57:55.086Z,93.85
2019-01-24T10:59:01.461Z,93.95
2019-01-24T11:00:07.943Z,94.29
2019-01-24T11:01:14.311Z,94.47
2019-01-24T11:02:20.725Z,94.87
2019-01-24T11:03:27.171Z,94.71
2019-01-24T11:04:33.571Z,95.02
2019-01-24T11:05:39.905Z,94.66
2019-01-24T11:06:50.033Z,94.74
2019-01-24T11:07:53.108Z,94.39
2019-01-24T11:09:00.018Z,94.43
2019-01-24T11:10:05.689Z,94.80
2019-01-24T11:11:11.685Z,94.12
2019-01-24T11:12:18.078Z,94.26
2019-01-24T11:13:24.165Z,94.09
2019-01-24T11:14:30.228Z,93.66
2019-01-24T11:15:36.231Z,94.16
2019-01-24T11:16:42.592Z,94.57
2019-01-24T11:17:48.592Z,95.05
2019-01-24T11:18:54.604Z,94.61
2019-01-24T11:20:00.979Z,94.84
2019-01-24T11:21:07.349Z,95.18
2019-01-24T11:22:13.340Z,94.86
2019-01-24T11:23:19.321Z,94.76
2019-01-24T11:24:25.770Z,94.46
2019-01-24T11:25:31.830Z,94.52
2019-01-24T11:26:37.900Z,94.30
2019-01-24T11:27:44.277Z,94.41
2019-01-24T11:28:50.660Z,94.06
2019-01-24T11:29:57.272Z,93.67
2019-01-24T11:31:03.702Z,93.90
2019-01-24T11:32:10.043Z,93.84
2019-01-24T11:33:16.403Z,94.35
2019-01-24T11:34:22.770Z,94.47
2019-01-24T11:35:31.165Z,93.91
2019-01-24T11:36:37.475Z,93.71
2019-01-24T11:37:43.868Z,93.48
2019-01-24T11:38:50.230Z,93.76
2019-01-24T11:39:56.639Z,93.47
2019-01-24T11:41:02.267Z,93.36
2019-01-24T11:42:08.245Z,93.46
2019-01-24T11:43:14.594Z,93.42
2019-01-24T11:44:20.973Z,93.91
2019-01-24T11:45:27.252Z,93.75
2019-01-24T11:46:33.569Z,93.38
2019-01-24T11:47:39.555Z,93.06
2019-01-24T11:48:45.862Z,93.29
2019-01-24T11:49:52.285Z,93.75
2019-01-24T11:50:58.336Z,93.64
2019-01-24T11:52:04.303Z,93.40
2019-01-24T11:53:10.673Z,93.58
2019-01-24T11:54:17.247Z,93.83
2019-01-24T11:55:23.273Z,93.30
2019-01-24T11:56:29.644Z,93.37
2019-01-24T11:57:35.985Z,92.82
2019-01-24T11:58:42.388Z,93.25
2019-01-24T11:59:48.806Z,93.05
2019-01-24T12:00:55.023Z,93.08
2019-01-24T12:02:01.343Z,92.75
2019-01-24T12:03:07.000Z,92.48
2019-01-24T12:04:13.350Z,92.93
2019-01-24T12:05:19.010Z,93.27
2019-01-24T12:06:25.426Z,93.73
2019-01-24T12:07:31.999Z,93.62
2019-01-24T12:08:38.296Z,93.30
2019-01-24T12:09:44.811Z,93.56
2019-01-24T12:10:51.320Z,93.98
2019-01-24T12:11:57.844Z,94.39
2019-01-24T12:13:03.850Z,93.75
2019-01-24T12:14:10.933Z,94.03
2019-01-24T12:15:17.796Z,93.31
2019-01-24T12:16:24.167Z,93.46
2019-01-24T12:17:30.496Z,93.53
2019-01-24T12:18:37.443Z,93.15
2019-01-24T12:19:43.785Z,93.17
2019-01-24T12:20:50.257Z,93.17
2019-01-24T12:21:56.620Z,93.25
2019-01-24T12:23:03.009Z,93.29
2019-01-24T12:24:09.358Z,94.07
2019-01-24T12:25:15.397Z,93.30
2019-01-24T12:26:21.758Z,93.25
2019-01-24T12:27:27.877Z,92.53
2019-01-24T12:28:34.333Z,92.93
2019-01-24T12:29:40.762Z,93.52
2019-01-24T12:30:47.119Z,93.96
2019-01-24T12:31:53.462Z,94.16
2019-01-24T12:32:59.113Z,93.32
2019-01-24T12:34:05.197Z,93.13
2019-01-24T12:35:12.150Z,93.10
2019-01-24T12:36:19.508Z,92.83
2019-01-24T12:37:25.506Z,92.41
2019-01-24T12:38:31.990Z,91.75
2019-01-24T12:39:38.387Z,92.81
2019-01-24T12:40:44.703Z,92.40
2019-01-24T12:41:51.042Z,92.56
2019-01-24T12:42:57.491Z,92.60
2019-01-24T12:44:03.172Z,92.67
2019-01-24T12:45:12.150Z,92.95
2019-01-24T12:46:18.234Z,93.11
2019-01-24T12:47:24.577Z,92.39
2019-01-24T12:48:30.934Z,92.40
2019-01-24T12:49:37.278Z,92.38
2019-01-24T12:50:43.616Z,92.28
2019-01-24T12:51:50.044Z,92.25
2019-01-24T12:52:55.731Z,91.95
2019-01-24T12:54:02.127Z,92.37
2019-01-24T12:55:08.010Z,92.57
2019-01-24T12:56:14.952Z,92.25
2019-01-24T12:57:21.697Z,92.42
2019-01-24T12:58:28.868Z,91.82
2019-01-24T12:59:35.261Z,92.17
2019-01-24T13:00:44.533Z,92.69
2019-01-24T13:01:50.848Z,92.68
2019-01-24T13:02:56.841Z,92.45
2019-01-24T13:04:03.147Z,92.34
2019-01-24T13:05:08.790Z,91.71
2019-01-24T13:06:15.129Z,91.97
2019-01-24T13:07:21.149Z,92.36
2019-01-24T13:08:27.583Z,92.83
2019-01-24T13:09:33.990Z,92.22
2019-01-24T13:10:40.405Z,92.58
2019-01-24T13:11:46.796Z,93.10
2019-01-24T13:12:53.134Z,92.60
2019-01-24T13:13:59.505Z,92.64
2019-01-24T13:15:05.203Z,93.46
2019-01-24T13:16:11.231Z,92.80
2019-01-24T13:17:17.645Z,92.38
2019-01-24T13:18:24.069Z,92.36
2019-01-24T13:19:31.307Z,92.61
2019-01-24T13:20:38.291Z,92.70
2019-01-24T13:21:44.713Z,93.36
2019-01-24T13:22:51.073Z,93.99
2019-01-24T13:23:57.484Z,94.07
2019-01-24T13:25:03.472Z,94.24
2019-01-24T13:26:09.795Z,93.37
2019-01-24T13:27:16.197Z,93.37
2019-01-24T13:28:22.572Z,93.82
2019-01-24T13:29:28.689Z,94.19
2019-01-24T13:30:34.374Z,94.49
2019-01-24T13:31:40.769Z,94.62
2019-01-24T13:32:47.120Z,94.97
2019-01-24T13:33:53.575Z,95.61
2019-01-24T13:35:00.014Z,95.45
2019-01-24T13:36:06.019Z,95.68
2019-01-24T13:37:12.348Z,96.06
2019-01-24T13:38:18.651Z,95.76
2019-01-24T13:39:25.068Z,96.27
2019-01-24T13:40:30.765Z,95.76
2019-01-24T13:41:42.464Z,95.88
2019-01-24T13:42:43.546Z,95.56
2019-01-24T13:43:49.942Z,95.90
2019-01-24T13:44:56.271Z,95.72
2019-01-24T13:46:02.618Z,95.97
2019-01-24T13:47:08.636Z,95.74
2019-01-24T13:48:15.050Z,96.12
2019-01-24T13:49:21.451Z,95.65
2019-01-24T13:50:27.819Z,95.72
2019-01-24T13:51:34.122Z,95.86
2019-01-24T13:52:40.551Z,96.29
2019-01-24T13:53:47.001Z,96.11
2019-01-24T13:54:52.996Z,96.39
2019-01-24T13:55:59.488Z,95.95
2019-01-24T13:57:05.830Z,95.49
2019-01-24T13:58:11.879Z,95.39
2019-01-24T13:59:18.254Z,95.72
2019-01-24T14:00:23.886Z,96.07
2019-01-24T14:01:29.879Z,95.97
2019-01-24T14:02:37.305Z,95.68
2019-01-24T14:03:43.674Z,95.75
2019-01-24T14:04:50.070Z,95.50
2019-01-24T14:05:56.463Z,95.82